Portada
METAR-TAF:

METAR-TAF

Aeropuertos :

Agen, Francia

latitud: 44-11N, longitud: 000-36E, altitud: 61 m

Observación

El informe se hizo hace 23 minutos, a las 11:00 UTC
Viento 8 kt del este-sureste, variando entre este y sur-sureste
Temperatura 16°C
Humedad 72%
Presión 1014 hPa
Visibilidad 10 km o más
sin nubes por debajo de 1500 m y sin presencia de cumulonimbus.

METAR: LFBA 231100Z AUTO 12008KT 080V150 CAVOK 16/11 Q1014 NOSIG

Hora: 12:23 (11:23 UTC)

Pronóstico

El informe se hizo hace 3 horas y 23 minutos, a las 08:00 UTC
Pronóstico válido del 23 a las 09 UTC al 23 a las 18 UTC
Viento 7 kt del sur-sureste
Visibilidad 10 km o más
sin nubes por debajo de 1500 m y sin presencia de cumulonimbus.

TAF: LFBA 230800Z 2309/2318 16007KT CAVOK

Observaciones y pronósticos meteorológicos de más de 4000 aeropuertos (mensajes METAR y TAF).

Los puntos amarillos y rojos representan las estaciones disponibles.

Ponga el ratón en el punto deseado para ver el nombre de la estación.

Haga clic para ver las observaciones y los pronósticos meteorológicos.

Para cambiar el mapa : haga clic en los botones verdes con una cruz de color negro para hacer un zoom, en el botón verde con un guión para alejar o en las flechas verdes para mapas adyacentes.


METAR-TAF: